• images/banner/banner1.jpg
  • images/banner/banner2.jpg

Team Member Login

Aviation Weather

[source: ADDS]
METAR
EGVN 201850Z 02006KT CAVOK 18/08 Q1023 BLU NOSIG =
TAF
TAF EGVN 201634Z 2018/2118 32008KT CAVOK PROB40 2101/2107 7000 HZ PROB30 TEMPO 2112/2118 30015G25KT 3000 +SHRA SCT045CB =